< Typhoon 197701 1977 Season Typhoon 197703 >
Typhoon 197702 (RUTH)
General InformationTrack Information on Google MapsDetailed Wind Information || Disaster Info.ResourceGoogle EarthGE AnimationAtom FeedGeoJSON
Detalied Best Track (Time Zone = UTC)
Year Month Day Hour Lat. Long. Pressure (hPa) Wind (kt) Class Image Chart
1977 6 13 00 13.0 118.0 1008 0 2 -- Chart
1977 6 13 06 13.5 117.6 1004 0 2 -- Chart
1977 6 13 12 14.2 117.3 1004 0 2 -- Chart
1977 6 13 18 14.9 117.1 1000 0 2 -- Chart
1977 6 14 00 15.6 117.1 992 40 3 -- Chart
1977 6 14 06 16.6 117.1 990 45 3 -- Chart
1977 6 14 12 17.3 116.7 985 45 3 -- Chart
1977 6 14 18 18.0 116.7 980 45 3 -- Chart
1977 6 15 00 18.5 116.7 975 45 3 -- Chart
1977 6 15 06 19.4 117.1 980 55 4 -- Chart
1977 6 15 12 20.4 117.4 980 60 4 -- Chart
1977 6 15 18 21.2 117.8 980 60 4 -- Chart
1977 6 16 00 21.9 118.0 980 60 4 -- Chart
1977 6 16 06 23.2 118.3 985 60 4 -- Chart
1977 6 16 12 24.5 118.6 990 45 3 -- Chart
1977 6 16 18 25.6 119.2 994 40 3 -- Chart
1977 6 17 00 27.0 120.0 1000 0 2 -- Chart
1977 6 17 06 27.5 120.5 1000 0 2 -- Chart
1977 6 17 12 28.0 123.0 1000 0 6 -- Chart
1977 6 17 18 29.0 126.0 1000 0 6 -- Chart
1977 6 18 00 29.1 129.0 1000 0 6 -- Chart
1977 6 18 06 29.6 132.3 998 0 6 -- Chart
1977 6 18 12 30.2 135.8 998 0 6 -- Chart
1977 6 18 18 31.3 139.1 998 0 6 -- Chart
1977 6 19 00 32.5 142.0 998 0 6 -- Chart
1977 6 19 06 33.9 145.3 998 0 6 -- Chart
1977 6 19 12 35.4 149.0 1000 0 6 -- Chart
1977 6 19 18 37.0 153.0 1002 0 6 -- Chart
1977 6 20 00 39.0 158.0 1004 0 6 -- Chart
1977 6 20 06 39.6 162.1 1004 0 6 -- Chart
1977 6 20 12 40.0 166.0 1004 0 6 -- Chart
1977 6 20 18 40.3 170.3 1004 0 6 -- Chart
1977 6 21 00 40.3 174.8 1004 0 6 -- Chart
1977 6 21 06 41.0 179.0 1004 0 6 -- Chart
1977 6 21 12 42.0 183.0 1004 0 6 -- Chart
Japan Meteorological Agency Best Track Data | Correction Date : 1992-10-21
< Typhoon 197701 1977 Season Typhoon 197703 >

Help